Time;durP1;ratioP1;P1;durP2;ratioP2;P2;SDS_P1;SDS_P2;PMS_P1;PMS_P2;Temp;Humidity;BMP_temperature;BMP_pressure;BME280_temperature;BME280_humidity;BME280_pressure;Samples;Min_cycle;Max_cycle;Signal;HPM_P1;HPM_P2
2023/09/04 00:01:03;;;;;;;6.03;4.05;;;13.90;99.90;;;;;;4970701;28;20037;-83
2023/09/04 00:03:29;;;;;;;4.03;3.40;;;13.90;99.90;;;;;;5010665;28;20037;-83
2023/09/04 00:05:55;;;;;;;4.30;3.60;;;13.90;99.90;;;;;;5028008;28;20037;-83
2023/09/04 00:08:21;;;;;;;5.35;4.03;;;13.90;99.90;;;;;;5014487;28;20103;-83
2023/09/04 00:10:47;;;;;;;3.95;3.65;;;13.90;99.90;;;;;;5031034;28;20051;-83
2023/09/04 00:13:13;;;;;;;4.57;4.18;;;13.80;99.90;;;;;;5022136;28;20120;-83
2023/09/04 00:15:39;;;;;;;4.28;3.50;;;13.80;99.90;;;;;;5031308;28;20102;-83
2023/09/04 00:18:07;;;;;;;4.32;3.80;;;13.70;99.90;;;;;;5017239;28;20034;-83
2023/09/04 00:20:33;;;;;;;4.47;3.55;;;13.70;99.90;;;;;;5009671;28;20783;-83
2023/09/04 00:22:59;;;;;;;3.80;3.50;;;13.70;99.90;;;;;;5007869;28;20041;-83
2023/09/04 00:25:25;;;;;;;4.32;3.92;;;13.70;99.90;;;;;;4984092;28;20085;-83
2023/09/04 00:27:50;;;;;;;4.07;3.67;;;13.70;99.90;;;;;;5026365;28;20508;-83
2023/09/04 00:30:17;;;;;;;4.43;3.92;;;13.70;99.90;;;;;;4998315;28;20045;-84
2023/09/04 00:32:43;;;;;;;4.50;4.10;;;13.70;99.90;;;;;;5010106;28;20045;-83
2023/09/04 00:35:09;;;;;;;4.50;4.10;;;13.70;99.90;;;;;;5007175;28;20374;-83
2023/09/04 00:37:35;;;;;;;6.18;5.15;;;13.60;99.90;;;;;;5014175;28;20037;-83
2023/09/04 00:40:01;;;;;;;6.50;5.63;;;13.60;99.90;;;;;;5009114;28;20029;-83
2023/09/04 00:42:30;;;;;;;5.82;5.32;;;13.60;99.90;;;;;;5008299;28;20057;-83
2023/09/04 00:44:55;;;;;;;6.30;5.10;;;13.60;99.90;;;;;;5008553;28;20037;-83
2023/09/04 00:47:23;;;;;;;5.57;5.03;;;13.60;99.90;;;;;;5004890;28;20561;-83
2023/09/04 00:49:51;;;;;;;5.28;4.78;;;13.60;99.90;;;;;;5008663;28;20073;-83
2023/09/04 00:52:18;;;;;;;6.40;5.80;;;13.50;99.90;;;;;;5006196;28;20052;-83
2023/09/04 00:54:44;;;;;;;6.45;5.75;;;13.50;99.90;;;;;;5010935;28;20096;-83
2023/09/04 00:57:12;;;;;;;6.57;4.53;;;13.50;99.90;;;;;;5021927;28;20096;-83
2023/09/04 00:59:40;;;;;;;7.72;5.00;;;13.50;99.90;;;;;;4997886;28;20140;-83
2023/09/04 01:02:06;;;;;;;4.95;4.55;;;13.50;99.90;;;;;;5013934;28;20092;-83
2023/09/04 01:04:32;;;;;;;5.80;3.85;;;13.50;99.90;;;;;;5013865;28;20038;-83
2023/09/04 01:06:58;;;;;;;6.50;4.68;;;13.50;99.90;;;;;;5005620;28;20049;-83
2023/09/04 01:09:24;;;;;;;4.93;3.97;;;13.40;99.90;;;;;;5005673;28;20113;-83
2023/09/04 01:12:05;;;;;;;5.25;4.68;;;13.40;99.90;;;;;;5027243;28;20547;-83
2023/09/04 01:14:33;;;;;;;5.43;4.80;;;13.40;99.90;;;;;;5011112;28;20042;-83
2023/09/04 01:17:00;;;;;;;6.45;5.82;;;13.40;99.90;;;;;;5005773;28;20830;-83
2023/09/04 01:19:26;;;;;;;6.50;5.78;;;13.40;99.90;;;;;;4996745;28;20119;-83
2023/09/04 01:21:52;;;;;;;6.45;5.43;;;13.40;99.90;;;;;;5005921;28;20045;-83
2023/09/04 01:24:18;;;;;;;7.50;5.80;;;13.40;99.90;;;;;;5006954;28;20029;-83
2023/09/04 01:26:53;;;;;;;5.63;5.03;;;13.40;99.90;;;;;;4995307;28;20124;-83
2023/09/04 01:29:29;;;;;;;4.90;4.50;;;13.30;99.90;;;;;;5011408;28;20041;-83
2023/09/04 01:32:10;;;;;;;5.53;5.03;;;13.30;99.90;;;;;;5022847;28;20038;-83
2023/09/04 01:34:48;;;;;;;4.63;4.22;;;13.30;99.90;;;;;;5002753;28;20037;-83
2023/09/04 01:37:14;;;;;;;18.17;6.25;;;13.20;99.90;;;;;;5022603;28;20049;-83
2023/09/04 01:39:40;;;;;;;5.60;4.80;;;13.20;99.90;;;;;;5012801;28;20038;-83
2023/09/04 01:42:06;;;;;;;5.50;4.80;;;13.20;99.90;;;;;;4993777;28;20037;-83
2023/09/04 01:44:32;;;;;;;5.45;4.40;;;13.20;99.90;;;;;;5003381;28;20041;-83
2023/09/04 01:46:59;;;;;;;6.25;4.85;;;13.30;99.90;;;;;;5015172;28;20175;-83
2023/09/04 01:49:24;;;;;;;4.95;4.50;;;13.20;99.90;;;;;;5020739;28;20375;-83
2023/09/04 01:51:51;;;;;;;5.22;4.70;;;13.30;99.90;;;;;;5013695;28;20037;-83
2023/09/04 01:54:17;;;;;;;7.20;5.68;;;13.20;99.90;;;;;;4987601;28;20128;-83
2023/09/04 01:56:43;;;;;;;6.03;4.82;;;13.20;99.90;;;;;;5001360;28;20136;-83
2023/09/04 01:59:09;;;;;;;7.03;6.03;;;13.20;99.90;;;;;;5007311;28;20045;-83
2023/09/04 02:01:35;;;;;;;6.30;5.70;;;13.20;99.90;;;;;;5015836;28;20037;-82
2023/09/04 02:04:01;;;;;;;64.10;9.75;;;13.30;99.90;;;;;;5008195;28;20029;-82
2023/09/04 02:06:29;;;;;;;6.05;5.45;;;13.20;99.90;;;;;;5026786;28;20114;-82
2023/09/04 02:08:55;;;;;;;7.00;6.30;;;13.10;99.90;;;;;;5022313;28;20045;-83
2023/09/04 02:11:21;;;;;;;7.35;6.65;;;13.10;99.90;;;;;;4995004;28;20048;-82
2023/09/04 02:13:47;;;;;;;8.65;7.75;;;13.10;99.90;;;;;;5030530;28;20440;-82
2023/09/04 02:16:13;;;;;;;8.20;7.40;;;13.10;99.90;;;;;;5008074;28;20056;-82
2023/09/04 02:18:39;;;;;;;9.77;7.63;;;13.00;99.90;;;;;;5022633;28;20164;-82
2023/09/04 02:21:06;;;;;;;8.50;7.60;;;13.00;99.90;;;;;;5031502;28;20045;-82
2023/09/04 02:23:32;;;;;;;6.47;5.80;;;13.10;99.90;;;;;;5020575;28;20030;-82
2023/09/04 02:25:58;;;;;;;9.73;8.70;;;13.00;99.90;;;;;;5023400;28;20477;-82
2023/09/04 02:28:24;;;;;;;9.80;8.90;;;13.10;99.90;;;;;;5009191;28;20033;-82
2023/09/04 02:30:50;;;;;;;10.35;9.05;;;13.00;99.90;;;;;;4998021;28;20404;-82
2023/09/04 02:33:16;;;;;;;7.95;7.15;;;13.10;99.90;;;;;;5023561;28;20072;-82
2023/09/04 02:35:42;;;;;;;10.00;7.68;;;13.10;99.90;;;;;;5002323;28;20041;-82
2023/09/04 02:38:08;;;;;;;10.80;9.70;;;13.00;99.90;;;;;;5009392;28;20460;-82
2023/09/04 02:40:33;;;;;;;5.00;4.50;;;13.10;99.90;;;;;;5008015;28;20041;-82
2023/09/04 02:42:59;;;;;;;9.10;8.02;;;13.00;99.90;;;;;;5019108;28;20041;-82
2023/09/04 02:45:25;;;;;;;11.50;8.43;;;12.90;99.90;;;;;;5005212;28;20064;-82
2023/09/04 02:47:51;;;;;;;17.65;15.13;;;12.90;99.90;;;;;;5024905;28;20398;-82
2023/09/04 02:50:17;;;;;;;10.40;9.30;;;12.90;99.90;;;;;;5022404;28;20462;-82
2023/09/04 02:52:43;;;;;;;13.10;11.00;;;12.90;99.90;;;;;;5011781;28;20069;-82
2023/09/04 02:55:09;;;;;;;15.73;13.23;;;12.90;99.90;;;;;;5007608;28;20537;-82
2023/09/04 02:57:35;;;;;;;9.73;8.80;;;12.90;99.90;;;;;;5022071;28;20041;-82
2023/09/04 03:00:05;;;;;;;13.40;10.73;;;12.90;99.90;;;;;;5008478;28;20038;-82
2023/09/04 03:02:33;;;;;;;12.63;11.10;;;12.90;99.90;;;;;;5029087;28;20507;-82
2023/09/04 03:04:59;;;;;;;15.18;12.18;;;12.90;99.90;;;;;;5015922;28;20095;-82
2023/09/04 03:07:27;;;;;;;13.82;11.98;;;12.90;99.90;;;;;;5010940;28;20038;-82
2023/09/04 03:09:57;;;;;;;11.38;9.43;;;12.90;99.90;;;;;;5019195;28;20120;-83
2023/09/04 03:12:24;;;;;;;21.48;11.43;;;12.90;99.90;;;;;;5023368;28;20436;-82
2023/09/04 03:14:57;;;;;;;27.13;12.00;;;12.80;99.90;;;;;;5014459;28;20095;-82
2023/09/04 03:17:23;;;;;;;15.88;13.15;;;12.80;99.90;;;;;;5023716;28;20041;-82
2023/09/04 03:19:53;;;;;;;14.13;12.40;;;12.80;99.90;;;;;;5003138;28;20129;-82
2023/09/04 03:22:20;;;;;;;13.50;12.07;;;12.70;99.90;;;;;;4998061;28;20045;-83
2023/09/04 03:24:46;;;;;;;11.55;10.35;;;12.70;99.90;;;;;;4992610;28;20041;-82
2023/09/04 03:27:12;;;;;;;12.02;10.18;;;12.70;99.90;;;;;;5007984;28;20041;-82
2023/09/04 03:29:38;;;;;;;10.73;9.20;;;12.70;99.90;;;;;;4998346;28;20041;-82
2023/09/04 03:32:04;;;;;;;12.02;10.38;;;12.60;99.90;;;;;;5010329;28;20037;-82
2023/09/04 03:34:30;;;;;;;15.55;12.80;;;12.60;99.90;;;;;;4998315;28;20048;-82
2023/09/04 03:36:56;;;;;;;12.23;10.93;;;12.60;99.90;;;;;;4995190;28;20389;-82
2023/09/04 03:39:22;;;;;;;14.23;10.95;;;12.60;99.90;;;;;;5007569;28;20044;-82
2023/09/04 03:41:48;;;;;;;17.73;14.95;;;12.60;99.90;;;;;;4993531;28;20041;-82
2023/09/04 03:44:14;;;;;;;31.35;14.40;;;12.60;99.90;;;;;;5011657;28;20041;-82
2023/09/04 03:46:40;;;;;;;17.75;15.57;;;12.60;99.90;;;;;;4976783;28;20065;-82
2023/09/04 03:49:06;;;;;;;19.10;16.33;;;12.60;99.90;;;;;;4994833;28;20042;-82
2023/09/04 03:51:33;;;;;;;15.98;13.65;;;12.50;99.90;;;;;;5021337;28;20050;-82
2023/09/04 03:54:02;;;;;;;16.33;13.45;;;12.50;99.90;;;;;;5008670;28;20494;-82
2023/09/04 03:56:32;;;;;;;16.33;13.70;;;12.50;99.90;;;;;;5030927;28;20041;-82
2023/09/04 03:58:58;;;;;;;16.48;13.52;;;12.50;99.90;;;;;;5029145;28;20041;-82
2023/09/04 04:01:24;;;;;;;19.52;15.95;;;12.50;99.90;;;;;;5024121;28;20043;-82
2023/09/04 04:03:51;;;;;;;74.50;16.92;;;12.50;99.90;;;;;;4995281;28;20030;-82
2023/09/04 04:06:16;;;;;;;21.30;16.83;;;12.50;99.90;;;;;;5003147;28;20087;-82
2023/09/04 04:08:44;;;;;;;13.40;12.00;;;12.40;99.90;;;;;;4985974;28;20746;-82
2023/09/04 04:11:10;;;;;;;16.65;13.35;;;12.40;99.90;;;;;;5026524;28;20038;-82
2023/09/04 04:13:36;;;;;;;16.02;13.07;;;12.30;99.90;;;;;;5011572;28;20033;-82
2023/09/04 04:16:02;;;;;;;15.32;13.73;;;12.30;99.90;;;;;;5011137;28;20370;-82
2023/09/04 04:18:29;;;;;;;18.38;15.82;;;12.40;99.90;;;;;;5004946;28;20058;-82
2023/09/04 04:20:56;;;;;;;16.50;14.50;;;12.40;99.90;;;;;;5019085;28;20054;-82
2023/09/04 04:23:22;;;;;;;16.23;9.23;;;12.30;99.90;;;;;;5026835;28;20087;-82
2023/09/04 04:25:49;;;;;;;210.60;23.67;;;12.30;99.90;;;;;;5000079;28;20040;-82
2023/09/04 04:28:19;;;;;;;14.95;12.77;;;12.30;99.90;;;;;;5022714;28;20077;-82
2023/09/04 04:30:45;;;;;;;18.65;15.10;;;12.30;99.90;;;;;;5017484;28;20112;-83
2023/09/04 04:33:12;;;;;;;18.08;14.63;;;12.20;99.90;;;;;;5006255;28;20099;-83
2023/09/04 04:35:39;;;;;;;19.38;17.17;;;12.20;99.90;;;;;;5007571;28;20037;-83
2023/09/04 04:38:06;;;;;;;15.48;13.27;;;12.30;99.90;;;;;;5011759;28;20037;-82
2023/09/04 04:40:32;;;;;;;17.73;14.07;;;12.30;99.90;;;;;;5012877;28;20444;-83
2023/09/04 04:42:58;;;;;;;19.00;14.18;;;12.30;99.90;;;;;;5030345;28;20029;-82
2023/09/04 04:45:24;;;;;;;14.57;12.60;;;12.30;99.90;;;;;;4980964;28;20037;-82
2023/09/04 04:47:49;;;;;;;19.50;15.40;;;12.30;99.90;;;;;;5004907;28;20042;-83
2023/09/04 04:50:15;;;;;;;16.10;14.20;;;12.20;99.90;;;;;;5000625;28;20045;-83
2023/09/04 04:52:41;;;;;;;17.98;14.45;;;12.20;99.90;;;;;;5009978;28;20052;-83
2023/09/04 04:55:09;;;;;;;18.08;14.52;;;12.20;99.90;;;;;;5006508;28;20045;-83
2023/09/04 04:57:35;;;;;;;16.20;13.48;;;12.10;99.90;;;;;;5003771;28;20527;-83
2023/09/04 05:00:06;;;;;;;15.88;13.55;;;12.10;99.90;;;;;;5027298;28;20084;-84
2023/09/04 05:02:36;;;;;;;17.05;14.20;;;12.10;99.90;;;;;;5028655;28;20056;-82
2023/09/04 05:05:03;;;;;;;17.92;13.80;;;12.10;99.90;;;;;;5013145;28;20065;-83
2023/09/04 05:07:29;;;;;;;19.20;13.73;;;12.10;99.90;;;;;;5024291;28;20042;-83
2023/09/04 05:09:56;;;;;;;15.57;13.57;;;12.20;99.90;;;;;;5002559;28;20387;-83
2023/09/04 05:12:23;;;;;;;17.52;13.20;;;12.20;99.90;;;;;;5023869;28;20119;-83
2023/09/04 05:14:48;;;;;;;17.38;14.00;;;12.20;99.90;;;;;;4983402;28;20041;-83
2023/09/04 05:17:14;;;;;;;17.90;14.60;;;12.20;99.90;;;;;;5006979;28;20056;-84
2023/09/04 05:19:40;;;;;;;21.17;15.77;;;12.20;99.90;;;;;;5010739;28;20054;-83
2023/09/04 05:22:06;;;;;;;17.95;14.82;;;12.20;99.90;;;;;;5027029;28;20130;-83
2023/09/04 05:24:31;;;;;;;16.98;14.68;;;12.20;99.90;;;;;;5012991;28;20037;-83
2023/09/04 05:26:57;;;;;;;18.25;15.25;;;12.30;99.90;;;;;;5012826;28;20045;-83
2023/09/04 05:29:24;;;;;;;16.33;14.02;;;12.30;99.90;;;;;;5025083;28;20050;-84
2023/09/04 05:31:53;;;;;;;15.80;13.23;;;12.30;99.90;;;;;;5010055;28;20420;-83
2023/09/04 05:34:19;;;;;;;18.27;12.90;;;12.40;99.90;;;;;;4995581;28;20326;-83
2023/09/04 05:36:46;;;;;;;19.52;12.80;;;12.40;99.90;;;;;;5005562;28;20037;-84
2023/09/04 05:39:12;;;;;;;19.70;14.88;;;12.50;99.90;;;;;;5013635;28;20042;-83
2023/09/04 05:41:38;;;;;;;15.10;12.88;;;12.50;99.90;;;;;;5026864;28;20048;-83
2023/09/04 05:44:04;;;;;;;16.00;13.32;;;12.50;99.90;;;;;;5017780;28;20041;-83
2023/09/04 05:46:31;;;;;;;19.88;13.63;;;12.60;99.90;;;;;;4994983;28;20106;-84
2023/09/04 05:48:56;;;;;;;13.82;12.38;;;12.70;99.90;;;;;;5012732;28;20037;-84
2023/09/04 05:51:22;;;;;;;15.35;11.93;;;12.70;99.90;;;;;;5025400;28;20049;-83
2023/09/04 05:53:49;;;;;;;14.20;11.88;;;12.80;99.90;;;;;;5009125;28;20100;-83
2023/09/04 05:56:15;;;;;;;14.00;12.05;;;12.90;99.90;;;;;;4995694;28;20041;-84
2023/09/04 05:58:49;;;;;;;18.75;13.25;;;12.90;99.90;;;;;;5024882;28;20401;-83
2023/09/04 06:01:16;;;;;;;14.27;11.93;;;13.00;99.90;;;;;;5014324;28;20049;-84
2023/09/04 06:03:43;;;;;;;13.23;11.75;;;13.10;99.90;;;;;;5033345;28;20500;-84
2023/09/04 06:06:09;;;;;;;13.60;12.23;;;13.10;99.90;;;;;;4999994;28;20046;-84
2023/09/04 06:08:36;;;;;;;14.52;12.93;;;13.20;99.90;;;;;;5013874;28;20065;-84
2023/09/04 06:11:02;;;;;;;13.52;12.05;;;13.30;99.90;;;;;;5012681;28;20767;-84
2023/09/04 06:13:29;;;;;;;15.52;12.95;;;13.30;99.90;;;;;;5016630;28;20061;-83
2023/09/04 06:15:55;;;;;;;15.75;13.95;;;13.40;99.90;;;;;;5033463;28;20088;-84
2023/09/04 06:18:21;;;;;;;16.13;13.73;;;13.60;99.90;;;;;;5033064;28;20060;-84
2023/09/04 06:20:47;;;;;;;15.48;13.52;;;13.60;99.90;;;;;;5031876;28;20060;-83
2023/09/04 06:23:13;;;;;;;16.58;13.70;;;13.70;99.90;;;;;;5032495;28;20056;-84
2023/09/04 06:25:41;;;;;;;15.88;14.25;;;13.80;99.90;;;;;;5015814;28;20034;-84
2023/09/04 06:28:08;;;;;;;22.05;19.80;;;13.90;99.90;;;;;;5006915;28;20065;-84
2023/09/04 06:30:34;;;;;;;16.70;13.90;;;13.90;99.90;;;;;;5002883;28;20112;-84
2023/09/04 06:33:00;;;;;;;15.93;13.77;;;14.00;99.90;;;;;;5000782;28;20171;-85
2023/09/04 06:35:26;;;;;;;15.55;13.10;;;14.00;99.90;;;;;;5033143;28;20045;-85
2023/09/04 06:37:51;;;;;;;14.75;13.25;;;14.00;99.90;;;;;;5033326;28;20116;-84
2023/09/04 06:40:17;;;;;;;15.30;12.82;;;14.10;99.90;;;;;;5016632;28;20042;-85
2023/09/04 06:42:43;;;;;;;14.15;12.65;;;14.10;99.90;;;;;;5016233;28;20277;-84
2023/09/04 06:45:11;;;;;;;13.77;12.38;;;14.20;99.90;;;;;;5033870;28;20167;-84
2023/09/04 06:47:38;;;;;;;15.10;13.35;;;14.20;99.90;;;;;;5016414;28;20041;-84
2023/09/04 06:50:07;;;;;;;14.18;12.57;;;14.30;99.90;;;;;;5016193;28;20123;-84
2023/09/04 06:52:34;;;;;;;14.88;13.00;;;14.30;99.90;;;;;;5015930;28;20053;-85
2023/09/04 06:54:59;;;;;;;13.45;12.05;;;14.40;99.90;;;;;;5033510;28;20037;-85
2023/09/04 06:57:26;;;;;;;15.15;13.52;;;14.50;99.90;;;;;;5032266;28;20037;-84
2023/09/04 06:59:52;;;;;;;15.20;12.75;;;14.50;99.90;;;;;;5016626;28;20033;-85
2023/09/04 07:02:19;;;;;;;14.15;12.73;;;14.50;99.90;;;;;;5016024;28;20060;-84
2023/09/04 07:04:45;;;;;;;14.23;12.68;;;14.60;99.90;;;;;;5015976;28;20041;-84
2023/09/04 07:07:11;;;;;;;13.95;12.55;;;14.70;99.90;;;;;;5016202;28;20048;-85
2023/09/04 07:09:37;;;;;;;13.85;12.45;;;14.70;99.90;;;;;;4999951;28;20038;-85
2023/09/04 07:12:03;;;;;;;14.05;12.30;;;14.80;99.90;;;;;;4980275;28;20073;-84
2023/09/04 07:14:29;;;;;;;14.60;13.10;;;14.90;99.90;;;;;;5015640;28;20041;-84
2023/09/04 07:16:55;;;;;;;13.88;11.52;;;14.90;99.90;;;;;;4999648;28;20115;-85
2023/09/04 07:19:20;;;;;;;14.40;12.55;;;15.00;99.90;;;;;;4999441;28;20061;-85
2023/09/04 07:21:46;;;;;;;13.70;12.30;;;15.10;99.90;;;;;;5015861;28;20056;-85
2023/09/04 07:24:12;;;;;;;13.35;12.15;;;15.20;99.90;;;;;;5015998;28;20557;-84
2023/09/04 07:26:38;;;;;;;13.93;12.52;;;15.30;99.90;;;;;;5032337;28;20042;-85
2023/09/04 07:29:03;;;;;;;13.95;12.50;;;15.40;99.90;;;;;;5013210;28;20076;-85
2023/09/04 07:31:29;;;;;;;13.23;12.00;;;15.50;99.90;;;;;;5015498;28;20048;-85
2023/09/04 07:33:55;;;;;;;12.35;11.15;;;15.60;99.90;;;;;;5015883;28;20048;-85
2023/09/04 07:36:21;;;;;;;12.77;11.57;;;15.70;99.90;;;;;;5014440;28;20053;-85
2023/09/04 07:38:47;;;;;;;12.45;11.15;;;15.80;99.90;;;;;;5031940;28;20404;-86
2023/09/04 07:41:13;;;;;;;12.75;11.55;;;15.80;99.90;;;;;;5012431;28;20056;-85
2023/09/04 07:43:39;;;;;;;13.60;10.98;;;15.90;99.90;;;;;;5031703;28;20037;-85
2023/09/04 07:46:05;;;;;;;12.65;11.45;;;16.10;99.90;;;;;;4995696;28;20053;-86
2023/09/04 07:48:31;;;;;;;12.52;11.32;;;16.20;99.90;;;;;;5011284;28;20042;-84
2023/09/04 07:50:57;;;;;;;13.38;10.88;;;16.30;99.90;;;;;;5032142;28;20122;-85
2023/09/04 07:53:23;;;;;;;12.57;11.05;;;16.50;99.90;;;;;;5005434;28;20498;-85
2023/09/04 07:55:51;;;;;;;12.23;11.07;;;16.60;99.90;;;;;;5013530;28;20033;-84
2023/09/04 07:58:17;;;;;;;10.52;9.48;;;16.70;99.90;;;;;;5019889;28;20037;-84
2023/09/04 08:00:48;;;;;;;11.60;10.40;;;16.80;99.90;;;;;;5031688;28;20037;-85
2023/09/04 08:03:14;;;;;;;11.57;10.10;;;17.00;99.90;;;;;;5015550;28;20068;-85
2023/09/04 08:05:40;;;;;;;12.00;10.82;;;17.10;99.90;;;;;;5031345;28;20033;-85
2023/09/04 08:08:10;;;;;;;12.50;11.32;;;17.30;99.90;;;;;;5015000;28;20553;-85
2023/09/04 08:10:43;;;;;;;12.07;10.80;;;17.40;99.90;;;;;;4998974;28;20120;-86
2023/09/04 08:13:18;;;;;;;11.88;10.68;;;17.50;99.90;;;;;;5015006;28;20041;-85
2023/09/04 08:15:44;;;;;;;10.75;9.75;;;17.60;99.90;;;;;;5014590;28;20132;-85
2023/09/04 08:18:10;;;;;;;11.48;10.35;;;17.80;99.90;;;;;;5015156;28;20037;-86
2023/09/04 08:20:36;;;;;;;11.02;9.93;;;17.90;99.90;;;;;;5030848;28;20042;-85
2023/09/04 08:23:03;;;;;;;11.93;10.82;;;18.10;99.90;;;;;;5019813;28;20041;-85
2023/09/04 08:25:32;;;;;;;11.13;10.02;;;18.20;99.90;;;;;;4983124;28;20452;-84
2023/09/04 08:27:58;;;;;;;11.68;10.48;;;18.30;99.90;;;;;;5012685;28;20054;-85
2023/09/04 08:30:24;;;;;;;10.13;9.13;;;18.40;99.90;;;;;;5022014;28;20103;-84
2023/09/04 08:32:50;;;;;;;11.85;9.50;;;18.60;99.90;;;;;;5014662;28;20052;-85
2023/09/04 08:35:17;;;;;;;10.55;9.65;;;18.70;99.90;;;;;;5032249;28;20038;-85
2023/09/04 08:37:44;;;;;;;10.15;9.15;;;18.80;99.90;;;;;;5014452;28;20087;-84
2023/09/04 08:40:10;;;;;;;9.98;9.05;;;19.00;99.90;;;;;;5008635;28;20034;-84
2023/09/04 08:42:38;;;;;;;8.85;8.00;;;19.10;99.90;;;;;;4980713;28;20050;-84
2023/09/04 08:45:06;;;;;;;8.63;7.72;;;19.20;99.90;;;;;;5016705;28;20401;-86
2023/09/04 08:47:38;;;;;;;8.57;7.78;;;19.30;99.90;;;;;;5012013;28;20091;-86
2023/09/04 08:50:04;;;;;;;9.43;8.10;;;19.40;99.90;;;;;;5014186;28;20128;-86
2023/09/04 08:52:30;;;;;;;6.50;5.90;;;19.50;99.90;;;;;;5014037;28;20694;-84
2023/09/04 08:54:56;;;;;;;6.75;6.05;;;19.60;99.90;;;;;;5030361;28;20103;-84
2023/09/04 08:57:24;;;;;;;6.95;5.80;;;19.70;99.90;;;;;;4997836;28;20053;-85
2023/09/04 08:59:50;;;;;;;6.55;5.82;;;19.80;99.90;;;;;;5014585;28;20052;-84
2023/09/04 09:02:17;;;;;;;6.57;5.80;;;19.90;99.90;;;;;;5030314;28;20493;-84
2023/09/04 09:04:43;;;;;;;5.22;4.82;;;20.00;99.90;;;;;;5031657;28;20491;-85
2023/09/04 09:07:12;;;;;;;5.72;5.15;;;20.00;99.90;;;;;;5030249;28;20041;-84
2023/09/04 09:09:41;;;;;;;5.88;5.28;;;20.10;99.90;;;;;;5030398;28;20049;-85
2023/09/04 09:12:07;;;;;;;5.20;4.68;;;20.20;99.90;;;;;;5013930;28;20041;-85
2023/09/04 09:14:33;;;;;;;5.78;4.53;;;20.30;99.90;;;;;;5031692;28;20041;-84
2023/09/04 09:17:08;;;;;;;4.60;4.25;;;20.30;99.90;;;;;;5013744;28;20037;-84
2023/09/04 09:19:38;;;;;;;4.90;4.22;;;20.50;99.90;;;;;;5013833;28;20049;-84
2023/09/04 09:22:15;;;;;;;5.00;4.57;;;20.60;99.90;;;;;;5013736;28;20045;-84
2023/09/04 09:24:59;;;;;;;4.60;4.20;;;20.70;99.90;;;;;;5013956;28;20049;-84
2023/09/04 09:27:32;;;;;;;5.07;4.57;;;20.80;99.90;;;;;;4990883;28;20168;-83
2023/09/04 09:30:02;;;;;;;4.63;4.22;;;20.90;99.90;;;;;;4994576;28;20109;-85
2023/09/04 09:32:30;;;;;;;5.65;4.22;;;21.00;99.90;;;;;;5003829;28;20477;-84
2023/09/04 09:34:59;;;;;;;5.05;4.40;;;21.00;99.90;;;;;;5013373;28;20033;-84
2023/09/04 09:37:26;;;;;;;5.15;4.65;;;21.10;99.90;;;;;;5012348;28;20099;-87
2023/09/04 09:39:52;;;;;;;4.63;4.10;;;21.10;99.90;;;;;;5007573;28;20037;-84
2023/09/04 09:42:23;;;;;;;5.15;3.92;;;21.10;99.90;;;;;;5010882;28;20052;-84
2023/09/04 09:44:50;;;;;;;5.85;3.90;;;21.30;99.90;;;;;;4989997;28;20041;-84
2023/09/04 09:47:17;;;;;;;4.75;4.07;;;21.30;99.90;;;;;;5012898;28;20037;-85
2023/09/04 09:49:43;;;;;;;4.15;3.40;;;21.30;99.90;;;;;;5012655;28;20135;-83
2023/09/04 09:52:12;;;;;;;3.72;3.03;;;21.40;99.90;;;;;;5029517;28;20401;-85
2023/09/04 09:54:42;;;;;;;4.13;3.72;;;21.40;99.90;;;;;;5016468;28;22032;-84
2023/09/04 09:57:10;;;;;;;4.15;3.30;;;21.40;99.90;;;;;;5001998;28;20577;-85
2023/09/04 09:59:44;;;;;;;3.38;3.05;;;21.50;99.90;;;;;;5017120;28;20140;-83
2023/09/04 10:02:13;;;;;;;4.20;3.80;;;21.60;99.90;;;;;;5016963;28;20388;-83
2023/09/04 10:04:40;;;;;;;3.35;3.05;;;21.60;99.90;;;;;;5016631;28;20080;-83
2023/09/04 10:07:07;;;;;;;3.60;3.30;;;21.80;99.90;;;;;;5000279;28;20048;-83
2023/09/04 10:09:40;;;;;;;3.25;2.95;;;21.80;99.90;;;;;;5016675;28;20041;-84
2023/09/04 10:12:31;;;;;;;5.40;3.85;;;21.90;99.90;;;;;;5032965;28;20535;-84
2023/09/04 10:14:59;;;;;;;4.07;3.42;;;21.90;99.90;;;;;;5033169;28;20404;-86
2023/09/04 10:17:40;;;;;;;5.97;3.22;;;22.00;99.90;;;;;;5016228;28;20120;-83
2023/09/04 10:20:06;;;;;;;3.80;3.20;;;22.10;99.90;;;;;;5033067;28;20062;-84
2023/09/04 10:22:38;;;;;;;4.13;3.72;;;22.10;99.90;;;;;;5016373;28;20069;-84
2023/09/04 10:25:15;;;;;;;5.22;3.40;;;22.10;99.90;;;;;;5018429;28;20056;-85
2023/09/04 10:27:55;;;;;;;3.63;3.25;;;22.10;99.90;;;;;;5016249;28;20041;-83
2023/09/04 10:30:25;;;;;;;3.53;3.10;;;22.20;99.90;;;;;;5016842;28;20037;-84
2023/09/04 10:32:54;;;;;;;3.65;3.05;;;22.10;99.90;;;;;;5032045;28;20477;-83
2023/09/04 10:35:20;;;;;;;4.35;3.20;;;22.10;99.90;;;;;;5007570;28;20393;-84
2023/09/04 10:37:49;;;;;;;5.68;3.25;;;22.20;99.90;;;;;;4964861;28;20052;-87
2023/09/04 10:40:16;;;;;;;3.28;2.95;;;22.30;99.90;;;;;;4984224;28;20038;-86
2023/09/04 10:42:43;;;;;;;3.97;2.70;;;22.40;99.90;;;;;;4999951;28;20041;-84
2023/09/04 10:45:18;;;;;;;6.25;3.08;;;22.50;99.90;;;;;;5016446;28;20455;-83
2023/09/04 10:47:46;;;;;;;3.20;2.80;;;22.60;99.90;;;;;;5024474;28;20120;-86
2023/09/04 10:50:33;;;;;;;4.07;2.90;;;22.60;99.90;;;;;;5032801;28;20033;-85
2023/09/04 10:53:00;;;;;;;3.40;2.58;;;22.70;99.90;;;;;;5031454;28;20506;-85
2023/09/04 10:55:27;;;;;;;3.38;3.05;;;22.70;99.90;;;;;;5015821;28;20041;-86
2023/09/04 10:58:03;;;;;;;3.63;3.13;;;22.80;99.90;;;;;;5032064;28;20053;-85
2023/09/04 11:00:39;;;;;;;4.43;2.80;;;22.80;99.90;;;;;;5030331;28;20037;-86
2023/09/04 11:03:19;;;;;;;3.65;2.88;;;22.90;99.90;;;;;;5026984;28;20757;-83
2023/09/04 11:06:20;;;;;;;2.83;2.47;;;22.90;99.90;;;;;;5015957;28;20425;-84
2023/09/04 11:08:50;;;;;;;3.22;2.92;;;23.00;99.90;;;;;;5016213;28;20049;-83
2023/09/04 11:11:20;;;;;;;3.07;2.63;;;23.10;99.90;;;;;;5032045;28;20041;-84
2023/09/04 11:13:55;;;;;;;3.47;3.17;;;23.10;99.90;;;;;;5032240;28;20799;-84
2023/09/04 11:16:22;;;;;;;3.25;2.55;;;23.20;99.90;;;;;;5023748;28;20045;-84
2023/09/04 11:19:04;;;;;;;3.20;2.90;;;23.30;99.90;;;;;;5031823;28;20061;-84
2023/09/04 11:21:34;;;;;;;3.70;2.80;;;23.50;99.90;;;;;;5027580;28;20140;-84
2023/09/04 11:24:02;;;;;;;3.58;2.80;;;23.50;99.90;;;;;;5015156;28;20507;-87
2023/09/04 11:26:28;;;;;;;3.05;2.70;;;23.60;99.90;;;;;;5015214;28;20051;-85
2023/09/04 11:29:02;;;;;;;4.00;2.92;;;23.60;99.90;;;;;;5004188;28;20049;-85
2023/09/04 11:31:29;;;;;;;3.30;3.00;;;23.60;99.90;;;;;;5008561;28;20066;-86
2023/09/04 11:33:56;;;;;;;5.15;3.08;;;23.70;99.90;;;;;;4999071;28;20072;-85
2023/09/04 11:36:22;;;;;;;5.78;2.75;;;23.80;99.90;;;;;;5028908;28;20045;-85
2023/09/04 11:39:04;;;;;;;3.30;2.78;;;23.80;99.90;;;;;;5015112;28;20049;-85
2023/09/04 11:41:30;;;;;;;;;;;23.80;99.90;;;;;;5012798;28;20053;-85
2023/09/04 11:43:56;;;;;;;4.35;3.08;;;23.70;99.90;;;;;;4998596;28;19925;-86
2023/09/04 11:46:22;;;;;;;3.75;3.20;;;23.80;99.90;;;;;;5015389;28;20041;-85
2023/09/04 11:48:48;;;;;;;4.43;3.10;;;23.80;99.90;;;;;;5015122;28;20485;-84
2023/09/04 11:51:14;;;;;;;3.90;3.00;;;23.90;99.90;;;;;;5015036;28;20049;-85
2023/09/04 11:53:40;;;;;;;3.53;2.65;;;24.00;99.90;;;;;;5014837;28;20786;-85
2023/09/04 11:56:06;;;;;;;3.42;2.75;;;24.00;99.90;;;;;;5030064;28;20041;-85
2023/09/04 11:58:33;;;;;;;3.65;3.35;;;24.10;99.90;;;;;;4991723;28;20473;-85
2023/09/04 12:01:00;;;;;;;3.20;2.70;;;24.10;99.90;;;;;;5014890;28;20132;-83
2023/09/04 12:03:25;;;;;;;3.08;2.78;;;24.20;99.90;;;;;;5014814;28;20041;-86
2023/09/04 12:05:51;;;;;;;5.00;2.90;;;24.30;99.90;;;;;;5031199;28;20052;-84
2023/09/04 12:08:18;;;;;;;3.67;2.30;;;24.30;99.90;;;;;;5015022;28;20041;-86
2023/09/04 12:10:44;;;;;;;2.83;2.63;;;24.40;99.90;;;;;;5009800;28;20489;-86
2023/09/04 12:13:12;;;;;;;3.25;2.40;;;24.40;99.90;;;;;;5014459;28;20052;-85
2023/09/04 12:15:38;;;;;;;3.10;2.75;;;24.40;99.90;;;;;;5030775;28;20052;-87
2023/09/04 12:18:05;;;;;;;2.88;2.53;;;24.50;99.90;;;;;;5030999;28;20045;-84
2023/09/04 12:20:44;;;;;;;4.75;2.50;;;24.60;99.90;;;;;;5014483;28;20053;-86
2023/09/04 12:23:10;;;;;;;2.80;2.50;;;24.70;99.90;;;;;;5014647;28;20440;-87
2023/09/04 12:25:41;;;;;;;2.95;2.25;;;24.80;99.90;;;;;;5014298;28;20037;-86
2023/09/04 12:28:09;;;;;;;5.53;2.45;;;24.80;99.90;;;;;;5021278;28;20037;-89
2023/09/04 12:30:46;;;;;;;3.17;2.30;;;24.80;99.90;;;;;;5029074;28;20543;-84
2023/09/04 12:33:12;;;;;;;3.90;2.28;;;24.80;99.90;;;;;;5003289;28;20474;-86
2023/09/04 12:35:40;;;;;;;2.72;2.22;;;24.90;99.90;;;;;;5030931;28;20033;-85
2023/09/04 12:38:05;;;;;;;2.30;2.10;;;24.80;99.90;;;;;;5013908;28;20041;-86
2023/09/04 12:40:31;;;;;;;2.35;2.15;;;24.80;99.90;;;;;;5014045;28;20069;-87